Time;durP1;ratioP1;P1;durP2;ratioP2;P2;SDS_P1;SDS_P2;PMS_P1;PMS_P2;Temp;Humidity;BMP_temperature;BMP_pressure;BME280_temperature;BME280_humidity;BME280_pressure;Samples;Min_cycle;Max_cycle;Signal;HPM_P1;HPM_P2
2023/12/29 00:00:20;;;;;;;12.45;5.45;;;;;;;;;;1030583;28;20402;-62
2023/12/29 00:01:06;;;;;;;10.60;5.60;;;;;;;;;;1030373;28;20061;-62
2023/12/29 00:01:44;;;;;;;11.18;5.60;;;;;;;;;;1030931;28;20124;-62
2023/12/29 00:02:15;;;;;;;11.43;5.28;;;;;;;;;;1032008;28;20046;-63
2023/12/29 00:02:45;;;;;;;12.00;5.70;;;;;;;;;;1032022;28;20060;-62
2023/12/29 00:03:16;;;;;;;10.75;4.78;;;;;;;;;;1033071;28;20072;-62
2023/12/29 00:03:46;;;;;;;9.90;5.25;;;;;;;;;;1032510;28;20049;-62
2023/12/29 00:04:17;;;;;;;9.95;5.35;;;;;;;;;;1033301;28;20475;-63
2023/12/29 00:04:47;;;;;;;9.30;5.45;;;;;;;;;;1032260;28;20700;-62
2023/12/29 00:05:18;;;;;;;11.23;5.68;;;;;;;;;;1031846;28;20112;-62
2023/12/29 00:05:48;;;;;;;11.27;5.53;;;;;;;;;;1031852;28;20054;-62
2023/12/29 00:06:19;;;;;;;10.40;5.57;;;;;;;;;;1032281;28;20042;-61
2023/12/29 00:06:49;;;;;;;9.98;5.28;;;;;;;;;;1030759;28;20392;-62
2023/12/29 00:07:20;;;;;;;10.57;5.07;;;;;;;;;;1031321;28;20407;-62
2023/12/29 00:07:51;;;;;;;11.02;5.30;;;;;;;;;;1031105;28;20473;-62
2023/12/29 00:08:21;;;;;;;11.68;5.45;;;;;;;;;;1031732;28;20038;-62
2023/12/29 00:08:52;;;;;;;9.40;5.00;;;;;;;;;;1031648;28;20080;-62
2023/12/29 00:09:22;;;;;;;10.93;5.70;;;;;;;;;;1031854;28;20042;-62
2023/12/29 00:09:53;;;;;;;11.38;6.00;;;;;;;;;;1031633;28;20124;-62
2023/12/29 00:10:24;;;;;;;9.75;5.50;;;;;;;;;;1031719;28;20058;-62
2023/12/29 00:10:55;;;;;;;8.70;5.13;;;;;;;;;;1031405;28;21698;-62
2023/12/29 00:11:25;;;;;;;8.43;5.75;;;;;;;;;;1031174;28;20056;-62
2023/12/29 00:11:56;;;;;;;10.70;5.18;;;;;;;;;;1031980;28;20050;-62
2023/12/29 00:12:26;;;;;;;13.75;6.05;;;;;;;;;;1030964;28;20034;-62
2023/12/29 00:12:57;;;;;;;11.55;5.55;;;;;;;;;;1032641;28;20097;-62
2023/12/29 00:13:28;;;;;;;10.32;4.95;;;;;;;;;;1031994;28;23479;-62
2023/12/29 00:13:58;;;;;;;15.00;5.97;;;;;;;;;;1031280;28;20053;-62
2023/12/29 00:14:29;;;;;;;10.60;5.18;;;;;;;;;;1032168;28;20561;-63
2023/12/29 00:14:59;;;;;;;9.30;5.38;;;;;;;;;;1032266;28;20066;-62
2023/12/29 00:15:30;;;;;;;11.43;5.50;;;;;;;;;;1031279;28;20534;-62
2023/12/29 00:16:01;;;;;;;14.00;6.43;;;;;;;;;;1032737;28;20057;-62
2023/12/29 00:16:31;;;;;;;9.25;5.47;;;;;;;;;;1033071;28;20054;-63
2023/12/29 00:17:02;;;;;;;13.48;5.82;;;;;;;;;;1032364;28;20050;-61
2023/12/29 00:17:36;;;;;;;13.55;5.38;;;;;;;;;;1032469;28;20119;-63
2023/12/29 00:18:07;;;;;;;9.98;5.28;;;;;;;;;;1032916;28;20048;-62
2023/12/29 00:18:38;;;;;;;10.02;5.40;;;;;;;;;;1032807;28;20085;-62
2023/12/29 00:19:08;;;;;;;10.10;5.20;;;;;;;;;;1031553;28;20464;-62
2023/12/29 00:19:39;;;;;;;10.73;5.72;;;;;;;;;;1032987;28;20053;-62
2023/12/29 00:20:10;;;;;;;11.00;5.13;;;;;;;;;;1032967;28;20384;-62
2023/12/29 00:20:40;;;;;;;12.02;5.38;;;;;;;;;;1032317;28;20772;-63
2023/12/29 00:21:11;;;;;;;8.95;5.35;;;;;;;;;;1031231;28;20078;-62
2023/12/29 00:21:41;;;;;;;11.20;5.57;;;;;;;;;;1031739;28;20050;-62
2023/12/29 00:22:12;;;;;;;9.85;5.18;;;;;;;;;;1031583;28;20038;-63
2023/12/29 00:22:42;;;;;;;9.27;5.03;;;;;;;;;;1029527;28;20493;-62
2023/12/29 00:23:13;;;;;;;9.77;5.03;;;;;;;;;;1028590;28;20043;-62
2023/12/29 00:23:43;;;;;;;9.93;5.35;;;;;;;;;;1031230;28;20486;-61
2023/12/29 00:24:14;;;;;;;11.68;6.20;;;;;;;;;;1033267;28;20046;-61
2023/12/29 00:24:44;;;;;;;11.75;5.57;;;;;;;;;;1032567;28;20089;-62
2023/12/29 00:25:15;;;;;;;12.02;5.72;;;;;;;;;;1033691;28;20057;-62
2023/12/29 00:25:46;;;;;;;12.82;5.65;;;;;;;;;;1031861;28;20635;-61
2023/12/29 00:26:17;;;;;;;11.48;5.60;;;;;;;;;;1033114;28;20060;-62
2023/12/29 00:26:47;;;;;;;11.85;5.32;;;;;;;;;;1033133;28;20062;-61
2023/12/29 00:27:18;;;;;;;10.70;5.10;;;;;;;;;;1033561;28;20050;-62
2023/12/29 00:27:49;;;;;;;14.73;6.00;;;;;;;;;;1032735;28;20045;-62
2023/12/29 00:28:20;;;;;;;10.27;5.35;;;;;;;;;;1034055;28;20073;-62
2023/12/29 00:28:50;;;;;;;9.23;5.20;;;;;;;;;;1032141;28;20057;-62
2023/12/29 00:29:21;;;;;;;14.88;6.13;;;;;;;;;;1032044;28;20539;-62
2023/12/29 00:29:51;;;;;;;9.07;5.18;;;;;;;;;;1031766;28;20053;-63
2023/12/29 00:30:22;;;;;;;11.82;5.65;;;;;;;;;;1033558;28;20041;-62
2023/12/29 00:30:52;;;;;;;8.90;5.35;;;;;;;;;;1033168;28;20697;-62
2023/12/29 00:31:23;;;;;;;9.38;5.53;;;;;;;;;;1033229;28;20042;-62
2023/12/29 00:31:53;;;;;;;8.57;5.13;;;;;;;;;;1031438;28;20116;-62
2023/12/29 00:32:24;;;;;;;10.90;5.20;;;;;;;;;;1034409;28;20046;-62
2023/12/29 00:32:55;;;;;;;9.32;5.13;;;;;;;;;;1031860;28;20865;-63
2023/12/29 00:33:26;;;;;;;9.93;4.93;;;;;;;;;;1032734;28;20108;-62
2023/12/29 00:33:57;;;;;;;8.50;5.18;;;;;;;;;;1032524;28;20133;-62
2023/12/29 00:34:28;;;;;;;11.23;5.70;;;;;;;;;;1033717;28;20707;-61
2023/12/29 00:34:59;;;;;;;11.52;6.25;;;;;;;;;;1033785;28;20050;-62
2023/12/29 00:35:29;;;;;;;11.85;6.40;;;;;;;;;;1033448;28;20061;-62
2023/12/29 00:36:00;;;;;;;11.10;5.97;;;;;;;;;;1031647;28;20865;-62
2023/12/29 00:36:30;;;;;;;7.93;4.35;;;;;;;;;;1033871;28;20050;-62
2023/12/29 00:37:01;;;;;;;9.75;5.13;;;;;;;;;;1032485;28;20050;-62
2023/12/29 00:37:31;;;;;;;9.40;5.13;;;;;;;;;;1033080;28;20104;-61
2023/12/29 00:38:02;;;;;;;10.77;5.97;;;;;;;;;;1032723;28;20450;-62
2023/12/29 00:38:34;;;;;;;9.75;5.55;;;;;;;;;;1032452;28;20038;-62
2023/12/29 00:39:04;;;;;;;11.73;5.35;;;;;;;;;;1033861;28;20120;-61
2023/12/29 00:39:38;;;;;;;10.32;5.22;;;;;;;;;;1032961;28;20132;-62
2023/12/29 00:40:09;;;;;;;9.27;5.20;;;;;;;;;;1034126;28;20041;-62
2023/12/29 00:40:39;;;;;;;11.90;5.40;;;;;;;;;;1032385;28;20141;-62
2023/12/29 00:41:10;;;;;;;9.25;5.32;;;;;;;;;;1032997;28;20061;-61
2023/12/29 00:41:40;;;;;;;12.93;6.30;;;;;;;;;;1032637;28;20363;-63
2023/12/29 00:42:11;;;;;;;11.75;5.75;;;;;;;;;;1033522;28;20134;-60
2023/12/29 00:42:42;;;;;;;10.85;5.57;;;;;;;;;;1033339;28;20048;-62
2023/12/29 00:43:12;;;;;;;10.68;5.60;;;;;;;;;;1033221;28;20049;-63
2023/12/29 00:43:43;;;;;;;10.18;5.70;;;;;;;;;;1031847;28;20080;-60
2023/12/29 00:44:13;;;;;;;9.85;5.35;;;;;;;;;;1032650;28;20527;-61
2023/12/29 00:44:44;;;;;;;11.93;5.88;;;;;;;;;;1031876;28;20569;-63
2023/12/29 00:45:14;;;;;;;11.80;5.50;;;;;;;;;;1033313;28;20069;-62
2023/12/29 00:45:45;;;;;;;14.27;6.32;;;;;;;;;;1032752;28;20052;-62
2023/12/29 00:46:15;;;;;;;11.13;6.32;;;;;;;;;;1033034;28;20072;-62
2023/12/29 00:46:46;;;;;;;13.05;6.55;;;;;;;;;;1033041;28;20046;-62
2023/12/29 00:47:19;;;;;;;14.77;6.25;;;;;;;;;;1031411;28;20046;-63
2023/12/29 00:47:51;;;;;;;12.82;5.95;;;;;;;;;;1032929;28;20061;-62
2023/12/29 00:48:22;;;;;;;11.82;6.50;;;;;;;;;;1032724;28;20177;-62
2023/12/29 00:48:52;;;;;;;12.95;6.07;;;;;;;;;;1032714;28;20053;-62
2023/12/29 00:49:23;;;;;;;12.13;7.00;;;;;;;;;;1033796;28;20050;-62
2023/12/29 00:49:53;;;;;;;10.90;6.20;;;;;;;;;;1033378;28;20054;-62
2023/12/29 00:50:24;;;;;;;11.75;6.85;;;;;;;;;;1033202;28;20050;-63
2023/12/29 00:50:54;;;;;;;13.85;6.82;;;;;;;;;;1032710;28;20430;-62
2023/12/29 00:51:25;;;;;;;13.00;6.68;;;;;;;;;;1033139;28;20049;-62
2023/12/29 00:51:55;;;;;;;12.98;6.82;;;;;;;;;;1033337;28;20057;-62
2023/12/29 00:52:26;;;;;;;13.88;6.75;;;;;;;;;;1033483;28;20136;-62
2023/12/29 00:52:57;;;;;;;15.82;7.10;;;;;;;;;;1032002;28;20077;-63
2023/12/29 00:53:28;;;;;;;12.68;7.15;;;;;;;;;;1036439;28;20378;-62
2023/12/29 00:53:59;;;;;;;12.32;7.13;;;;;;;;;;1037312;28;20041;-62
2023/12/29 00:54:30;;;;;;;17.33;7.35;;;;;;;;;;1037948;28;20053;-62
2023/12/29 00:55:00;;;;;;;12.25;6.68;;;;;;;;;;1036291;28;20054;-63
2023/12/29 00:55:31;;;;;;;13.40;7.20;;;;;;;;;;1033146;28;20057;-61
2023/12/29 00:56:02;;;;;;;13.35;7.25;;;;;;;;;;1033023;28;20056;-62
2023/12/29 00:56:32;;;;;;;14.43;6.85;;;;;;;;;;1022909;28;20150;-61
2023/12/29 00:57:03;;;;;;;14.82;7.30;;;;;;;;;;1036742;28;20072;-62
2023/12/29 00:57:33;;;;;;;12.90;7.00;;;;;;;;;;1036051;28;20529;-62
2023/12/29 00:58:04;;;;;;;13.63;7.15;;;;;;;;;;1036079;28;20836;-62
2023/12/29 00:58:34;;;;;;;13.30;6.60;;;;;;;;;;1036448;28;20072;-62
2023/12/29 00:59:05;;;;;;;12.20;6.97;;;;;;;;;;1033040;28;20050;-62
2023/12/29 00:59:38;;;;;;;14.07;7.38;;;;;;;;;;1032534;28;20046;-63
2023/12/29 01:00:11;;;;;;;13.85;7.57;;;;;;;;;;1033404;28;20057;-62
2023/12/29 01:00:42;;;;;;;14.70;7.07;;;;;;;;;;1033115;28;20467;-62
2023/12/29 01:01:12;;;;;;;13.45;7.00;;;;;;;;;;1033233;28;20486;-62
2023/12/29 01:01:44;;;;;;;14.57;6.97;;;;;;;;;;1032233;28;20050;-62
2023/12/29 01:02:15;;;;;;;14.30;7.00;;;;;;;;;;1033283;28;20102;-61
2023/12/29 01:02:46;;;;;;;13.10;6.90;;;;;;;;;;1032184;28;20070;-62
2023/12/29 01:03:16;;;;;;;14.52;6.90;;;;;;;;;;1032832;28;20413;-62
2023/12/29 01:03:47;;;;;;;14.07;7.72;;;;;;;;;;1032865;28;20131;-62
2023/12/29 01:04:17;;;;;;;10.57;6.88;;;;;;;;;;1033035;28;20050;-63
2023/12/29 01:04:48;;;;;;;14.27;7.30;;;;;;;;;;1031195;28;20076;-63
2023/12/29 01:05:18;;;;;;;12.32;7.50;;;;;;;;;;1033824;28;20092;-61
2023/12/29 01:05:49;;;;;;;14.60;6.85;;;;;;;;;;1032009;28;20054;-61
2023/12/29 01:06:20;;;;;;;11.73;7.53;;;;;;;;;;1032947;28;20072;-61
2023/12/29 01:06:50;;;;;;;13.38;7.63;;;;;;;;;;1032450;28;20732;-62
2023/12/29 01:07:21;;;;;;;12.80;7.15;;;;;;;;;;1033681;28;20046;-62
2023/12/29 01:07:51;;;;;;;15.90;7.72;;;;;;;;;;1031667;28;20046;-62
2023/12/29 01:08:22;;;;;;;10.23;6.55;;;;;;;;;;1031906;28;20041;-62
2023/12/29 01:08:52;;;;;;;14.68;7.57;;;;;;;;;;1032009;28;20077;-62
2023/12/29 01:09:23;;;;;;;14.48;7.57;;;;;;;;;;1033624;28;20042;-63
2023/12/29 01:09:53;;;;;;;14.40;7.25;;;;;;;;;;1032253;28;20509;-62
2023/12/29 01:10:24;;;;;;;15.93;7.35;;;;;;;;;;1033900;28;20048;-61
2023/12/29 01:10:54;;;;;;;13.68;7.78;;;;;;;;;;1033120;28;20054;-63
2023/12/29 01:11:25;;;;;;;14.73;7.60;;;;;;;;;;1033838;28;20052;-62
2023/12/29 01:11:55;;;;;;;14.38;7.82;;;;;;;;;;1032032;28;20085;-62
2023/12/29 01:12:26;;;;;;;13.95;7.45;;;;;;;;;;1033062;28;20052;-62
2023/12/29 01:12:56;;;;;;;14.32;7.78;;;;;;;;;;1032862;28;20104;-62
2023/12/29 01:13:27;;;;;;;16.63;7.55;;;;;;;;;;1032591;28;20050;-63
2023/12/29 01:13:58;;;;;;;12.77;7.68;;;;;;;;;;1033808;28;20053;-62
2023/12/29 01:14:28;;;;;;;15.68;7.82;;;;;;;;;;1032132;28;20054;-62
2023/12/29 01:14:59;;;;;;;13.27;7.43;;;;;;;;;;1031968;28;20170;-61
2023/12/29 01:15:29;;;;;;;14.02;7.15;;;;;;;;;;1032960;28;20058;-63
2023/12/29 01:16:00;;;;;;;14.32;7.60;;;;;;;;;;1031977;28;20145;-62
2023/12/29 01:16:30;;;;;;;16.48;7.05;;;;;;;;;;1032285;28;20050;-62
2023/12/29 01:17:01;;;;;;;14.88;7.90;;;;;;;;;;1033031;28;20418;-62
2023/12/29 01:17:31;;;;;;;15.00;7.65;;;;;;;;;;1031405;28;20499;-62
2023/12/29 01:18:02;;;;;;;16.42;8.07;;;;;;;;;;1033041;28;22017;-61
2023/12/29 01:18:33;;;;;;;15.35;7.78;;;;;;;;;;1032400;28;20038;-62
2023/12/29 01:19:04;;;;;;;14.63;7.80;;;;;;;;;;1033412;28;20053;-62
2023/12/29 01:19:34;;;;;;;13.07;7.88;;;;;;;;;;1032111;28;20053;-62
2023/12/29 01:20:05;;;;;;;14.60;8.13;;;;;;;;;;1032335;28;20077;-62
2023/12/29 01:20:36;;;;;;;15.73;7.85;;;;;;;;;;1033097;28;20093;-62
2023/12/29 01:21:06;;;;;;;18.38;7.32;;;;;;;;;;1033392;28;20422;-62
2023/12/29 01:21:37;;;;;;;16.67;7.75;;;;;;;;;;1032747;28;20046;-63
2023/12/29 01:22:08;;;;;;;15.27;7.88;;;;;;;;;;1033361;28;20435;-63
2023/12/29 01:22:38;;;;;;;15.07;7.82;;;;;;;;;;1033122;28;20054;-63
2023/12/29 01:23:09;;;;;;;16.88;7.85;;;;;;;;;;1032873;28;20080;-62
2023/12/29 01:23:39;;;;;;;14.70;6.88;;;;;;;;;;1033433;28;20502;-62
2023/12/29 01:24:10;;;;;;;14.77;7.50;;;;;;;;;;1033542;28;20048;-62
2023/12/29 01:24:40;;;;;;;13.52;7.30;;;;;;;;;;1031677;28;20050;-62
2023/12/29 01:25:11;;;;;;;14.13;8.20;;;;;;;;;;1033964;28;20057;-61
2023/12/29 01:25:42;;;;;;;13.80;8.07;;;;;;;;;;1031353;28;20034;-64
2023/12/29 01:26:12;;;;;;;14.25;7.47;;;;;;;;;;1033344;28;20057;-62
2023/12/29 01:26:42;;;;;;;16.65;7.65;;;;;;;;;;1030970;28;20050;-62
2023/12/29 01:27:13;;;;;;;14.20;7.68;;;;;;;;;;1033037;28;20049;-62
2023/12/29 01:27:44;;;;;;;13.82;7.10;;;;;;;;;;1029152;28;20633;-61
2023/12/29 01:28:14;;;;;;;12.23;7.50;;;;;;;;;;1033524;28;20045;-62
2023/12/29 01:28:44;;;;;;;13.15;7.72;;;;;;;;;;1031699;28;20054;-62
2023/12/29 01:29:15;;;;;;;16.75;8.02;;;;;;;;;;1033322;28;20046;-63
2023/12/29 01:29:46;;;;;;;14.15;7.65;;;;;;;;;;1031253;28;20042;-62
2023/12/29 01:30:16;;;;;;;19.20;8.38;;;;;;;;;;1031820;28;20549;-62
2023/12/29 01:30:47;;;;;;;16.48;8.00;;;;;;;;;;1032040;28;20734;-62
2023/12/29 01:31:17;;;;;;;17.55;8.50;;;;;;;;;;1033081;28;20050;-62
2023/12/29 01:31:48;;;;;;;15.80;8.07;;;;;;;;;;1033018;28;20052;-63
2023/12/29 01:32:19;;;;;;;15.35;8.02;;;;;;;;;;1033452;28;20054;-61
2023/12/29 01:32:50;;;;;;;18.38;7.97;;;;;;;;;;1032734;28;20045;-61
2023/12/29 01:33:21;;;;;;;14.05;8.50;;;;;;;;;;1032120;28;20052;-62
2023/12/29 01:33:51;;;;;;;19.63;8.00;;;;;;;;;;1031973;28;20053;-63
2023/12/29 01:34:22;;;;;;;14.35;7.68;;;;;;;;;;1032604;28;20046;-62
2023/12/29 01:34:53;;;;;;;14.77;7.57;;;;;;;;;;1031512;28;20050;-62
2023/12/29 01:35:23;;;;;;;16.20;7.32;;;;;;;;;;1033871;28;20049;-62
2023/12/29 01:35:53;;;;;;;12.93;7.43;;;;;;;;;;1031080;28;20061;-63
2023/12/29 01:36:24;;;;;;;14.73;8.57;;;;;;;;;;1033239;28;20929;-65
2023/12/29 01:36:54;;;;;;;15.13;7.70;;;;;;;;;;1032002;28;20054;-62
2023/12/29 01:37:25;;;;;;;14.43;8.30;;;;;;;;;;1032854;28;20074;-62
2023/12/29 01:37:56;;;;;;;14.82;7.50;;;;;;;;;;1032670;28;20834;-62
2023/12/29 01:38:27;;;;;;;13.88;8.43;;;;;;;;;;1032386;28;20149;-62
2023/12/29 01:38:57;;;;;;;12.98;7.60;;;;;;;;;;1032009;28;20048;-64
2023/12/29 01:39:28;;;;;;;15.52;8.07;;;;;;;;;;1032765;28;20058;-62
2023/12/29 01:39:59;;;;;;;13.85;7.95;;;;;;;;;;1032500;28;20180;-62
2023/12/29 01:40:30;;;;;;;13.13;7.78;;;;;;;;;;1032151;28;20060;-62
2023/12/29 01:41:02;;;;;;;15.85;7.97;;;;;;;;;;1031501;28;20054;-62
2023/12/29 01:41:32;;;;;;;15.63;8.18;;;;;;;;;;1032303;28;20057;-62
2023/12/29 01:42:03;;;;;;;14.00;7.38;;;;;;;;;;1032186;28;20188;-62
2023/12/29 01:42:33;;;;;;;14.65;8.57;;;;;;;;;;1032552;28;20050;-62
2023/12/29 01:43:04;;;;;;;18.70;8.25;;;;;;;;;;1032554;28;20073;-62
2023/12/29 01:43:34;;;;;;;13.85;8.15;;;;;;;;;;1031801;28;20061;-63
2023/12/29 01:44:22;;;;;;;15.00;7.60;;;;;;;;;;1033562;28;20616;-62
2023/12/29 01:44:54;;;;;;;15.80;7.32;;;;;;;;;;1031789;28;20057;-63
2023/12/29 01:45:25;;;;;;;16.30;8.13;;;;;;;;;;1032494;28;20081;-62
2023/12/29 01:45:56;;;;;;;15.27;7.80;;;;;;;;;;1030971;28;20104;-61
2023/12/29 01:46:33;;;;;;;14.48;7.72;;;;;;;;;;1032500;28;20115;-61
2023/12/29 01:47:13;;;;;;;14.60;8.00;;;;;;;;;;1035022;28;20083;-61
2023/12/29 01:47:43;;;;;;;14.15;7.53;;;;;;;;;;1034595;28;20045;-62
2023/12/29 01:48:14;;;;;;;16.45;7.90;;;;;;;;;;1030803;28;20143;-62
2023/12/29 01:48:44;;;;;;;14.00;7.93;;;;;;;;;;1034460;28;20422;-63
2023/12/29 01:49:17;;;;;;;13.48;8.13;;;;;;;;;;1035509;28;20088;-63
2023/12/29 01:49:49;;;;;;;17.23;8.35;;;;;;;;;;1036438;28;20140;-62
2023/12/29 01:50:23;;;;;;;15.40;7.22;;;;;;;;;;1037319;28;20049;-63
2023/12/29 01:50:54;;;;;;;15.07;7.30;;;;;;;;;;1036442;28;20057;-63
2023/12/29 01:51:26;;;;;;;16.17;8.15;;;;;;;;;;1036579;28;20136;-62
2023/12/29 01:51:58;;;;;;;13.82;8.02;;;;;;;;;;1036803;28;20049;-62
2023/12/29 01:52:29;;;;;;;14.07;7.93;;;;;;;;;;1036024;28;20050;-62
2023/12/29 01:53:02;;;;;;;15.10;8.25;;;;;;;;;;1036130;28;20061;-63
2023/12/29 01:53:32;;;;;;;14.38;7.40;;;;;;;;;;1035697;28;20428;-62
2023/12/29 01:54:03;;;;;;;15.20;7.90;;;;;;;;;;1036306;28;20454;-61
2023/12/29 01:54:40;;;;;;;15.38;7.82;;;;;;;;;;1036570;28;20100;-62
2023/12/29 01:55:15;;;;;;;15.55;7.90;;;;;;;;;;1037916;28;20584;-62
2023/12/29 01:55:45;;;;;;;15.07;8.07;;;;;;;;;;1037101;28;20124;-63
2023/12/29 01:56:16;;;;;;;13.80;7.45;;;;;;;;;;1036542;28;20152;-62
2023/12/29 01:56:50;;;;;;;17.30;8.32;;;;;;;;;;1036496;28;20111;-62
2023/12/29 01:57:20;;;;;;;16.83;8.15;;;;;;;;;;1037485;28;20077;-62
2023/12/29 01:57:52;;;;;;;13.75;8.48;;;;;;;;;;1037457;28;20057;-62
2023/12/29 01:58:22;;;;;;;15.93;7.85;;;;;;;;;;1037194;28;20056;-62
2023/12/29 01:58:55;;;;;;;19.15;8.63;;;;;;;;;;1035934;28;20065;-63
2023/12/29 01:59:27;;;;;;;14.20;7.50;;;;;;;;;;1036271;28;20034;-62
2023/12/29 01:59:57;;;;;;;16.02;8.60;;;;;;;;;;1037498;28;20722;-62
2023/12/29 02:00:29;;;;;;;13.85;8.15;;;;;;;;;;1036361;28;20799;-62
2023/12/29 02:01:01;;;;;;;12.85;7.45;;;;;;;;;;1035966;28;22401;-63
2023/12/29 02:01:32;;;;;;;14.00;8.07;;;;;;;;;;1036341;28;20060;-62
2023/12/29 02:02:02;;;;;;;14.68;8.10;;;;;;;;;;1038036;28;20053;-63
2023/12/29 02:02:33;;;;;;;14.63;8.40;;;;;;;;;;1037388;28;20076;-62
2023/12/29 02:03:03;;;;;;;15.13;7.78;;;;;;;;;;1036832;28;20049;-62
2023/12/29 02:03:34;;;;;;;15.65;7.53;;;;;;;;;;1035905;28;20104;-63
2023/12/29 02:04:06;;;;;;;13.45;7.72;;;;;;;;;;1038197;28;20053;-63
2023/12/29 02:04:39;;;;;;;13.73;7.90;;;;;;;;;;1036319;28;20050;-62
2023/12/29 02:05:13;;;;;;;17.50;8.38;;;;;;;;;;1036185;28;20417;-62
2023/12/29 02:05:45;;;;;;;18.70;8.85;;;;;;;;;;1035588;28;21153;-63
2023/12/29 02:06:17;;;;;;;14.52;7.57;;;;;;;;;;1037259;28;20578;-63
2023/12/29 02:06:47;;;;;;;14.00;7.80;;;;;;;;;;1034842;28;20049;-62
2023/12/29 02:07:19;;;;;;;16.67;8.43;;;;;;;;;;1036417;28;20052;-62
2023/12/29 02:07:51;;;;;;;12.30;7.53;;;;;;;;;;1036920;28;20128;-63
2023/12/29 02:08:22;;;;;;;15.55;7.78;;;;;;;;;;1037427;28;20045;-61
2023/12/29 02:08:53;;;;;;;12.88;7.28;;;;;;;;;;1036129;28;20053;-63
2023/12/29 02:09:23;;;;;;;12.57;7.47;;;;;;;;;;1039323;28;20523;-63
2023/12/29 02:09:54;;;;;;;14.68;8.35;;;;;;;;;;1039773;28;20127;-61
2023/12/29 02:10:24;;;;;;;15.85;7.97;;;;;;;;;;1041449;28;20055;-62
2023/12/29 02:10:55;;;;;;;15.23;8.27;;;;;;;;;;1039077;28;20048;-62
2023/12/29 02:11:26;;;;;;;13.32;8.07;;;;;;;;;;1036449;28;20049;-62
2023/12/29 02:11:56;;;;;;;14.18;7.70;;;;;;;;;;1037664;28;20102;-62
2023/12/29 02:12:27;;;;;;;13.80;7.78;;;;;;;;;;1037234;28;20053;-62
2023/12/29 02:13:00;;;;;;;15.93;8.25;;;;;;;;;;1037141;28;20836;-62
2023/12/29 02:13:31;;;;;;;14.88;8.05;;;;;;;;;;1036943;28;20053;-62
2023/12/29 02:14:02;;;;;;;16.45;9.00;;;;;;;;;;1037862;28;20123;-63
2023/12/29 02:14:32;;;;;;;12.35;7.95;;;;;;;;;;1036477;28;20100;-62
2023/12/29 02:15:05;;;;;;;19.90;9.32;;;;;;;;;;1036448;28;20060;-63
2023/12/29 02:15:35;;;;;;;18.65;8.55;;;;;;;;;;1035762;28;20077;-63
2023/12/29 02:16:18;;;;;;;18.23;8.55;;;;;;;;;;1036338;28;20049;-62
2023/12/29 02:17:25;;;;;;;14.60;7.97;;;;;;;;;;1036702;28;20060;-62
2023/12/29 02:18:06;;;;;;;16.88;8.07;;;;;;;;;;1035639;28;20132;-62
2023/12/29 02:18:38;;;;;;;15.52;7.93;;;;;;;;;;1039614;28;20128;-62
2023/12/29 02:19:40;;;;;;;18.55;8.32;;;;;;;;;;1039909;28;20045;-62
2023/12/29 02:20:11;;;;;;;15.60;7.85;;;;;;;;;;1036898;28;20053;-63
2023/12/29 02:20:42;;;;;;;13.35;7.75;;;;;;;;;;1032428;28;20033;-62
2023/12/29 02:21:13;;;;;;;14.73;7.72;;;;;;;;;;1032720;28;20435;-62
2023/12/29 02:21:43;;;;;;;17.38;8.38;;;;;;;;;;1033720;28;20050;-61
2023/12/29 02:22:14;;;;;;;16.67;7.88;;;;;;;;;;1033112;28;20053;-62
2023/12/29 02:22:44;;;;;;;15.10;8.38;;;;;;;;;;1032658;28;20796;-62
2023/12/29 02:23:15;;;;;;;12.85;7.97;;;;;;;;;;1032376;28;20049;-63
2023/12/29 02:23:46;;;;;;;17.02;8.55;;;;;;;;;;1033625;28;20076;-62
2023/12/29 02:24:16;;;;;;;13.52;7.97;;;;;;;;;;1033025;28;20042;-62
2023/12/29 02:24:48;;;;;;;15.68;8.50;;;;;;;;;;1032663;28;20544;-62
2023/12/29 02:25:18;;;;;;;15.52;8.13;;;;;;;;;;1033536;28;20387;-63
2023/12/29 02:25:52;;;;;;;18.20;8.73;;;;;;;;;;1032471;28;20592;-62
2023/12/29 02:26:27;;;;;;;12.27;7.70;;;;;;;;;;1032432;28;20041;-63
2023/12/29 02:27:25;;;;;;;16.60;8.43;;;;;;;;;;1031970;28;20061;-63
2023/12/29 02:28:06;;;;;;;16.58;7.80;;;;;;;;;;1029665;28;20120;-62
2023/12/29 02:28:43;;;;;;;13.98;7.82;;;;;;;;;;1032445;28;20146;-61
2023/12/29 02:29:19;;;;;;;12.75;8.20;;;;;;;;;;1033569;28;20049;-62
2023/12/29 02:30:28;;;;;;;16.35;9.10;;;;;;;;;;1031630;28;20050;-62
2023/12/29 02:31:09;;;;;;;14.02;6.90;;;;;;;;;;1034952;28;20057;-62
2023/12/29 02:31:44;;;;;;;13.75;7.80;;;;;;;;;;1034750;28;20053;-63
2023/12/29 02:32:18;;;;;;;14.23;8.40;;;;;;;;;;1032815;28;20081;-62
2023/12/29 02:32:54;;;;;;;18.52;9.07;;;;;;;;;;1032659;28;20071;-61
2023/12/29 02:33:25;;;;;;;13.85;8.82;;;;;;;;;;1034087;28;20592;-62
2023/12/29 02:33:56;;;;;;;19.25;9.10;;;;;;;;;;1030257;28;20736;-62
2023/12/29 02:34:29;;;;;;;17.60;8.77;;;;;;;;;;1033035;28;20041;-62
2023/12/29 02:35:01;;;;;;;22.52;9.38;;;;;;;;;;1032698;28;20065;-63
2023/12/29 02:35:36;;;;;;;19.10;9.13;;;;;;;;;;1032483;28;20042;-61
2023/12/29 02:36:07;;;;;;;14.70;8.68;;;;;;;;;;1033465;28;20050;-62
2023/12/29 02:36:42;;;;;;;17.27;9.20;;;;;;;;;;1032284;28;20084;-62
2023/12/29 02:37:14;;;;;;;14.68;8.35;;;;;;;;;;1033352;28;20069;-62
2023/12/29 02:37:46;;;;;;;16.92;9.23;;;;;;;;;;1031570;28;20054;-62
2023/12/29 02:38:17;;;;;;;17.65;8.00;;;;;;;;;;1033390;28;20060;-62
2023/12/29 02:38:47;;;;;;;17.67;9.18;;;;;;;;;;1032359;28;20132;-62
2023/12/29 02:39:18;;;;;;;14.50;8.27;;;;;;;;;;1033186;28;20081;-63
2023/12/29 02:39:49;;;;;;;19.45;9.20;;;;;;;;;;1032686;28;20113;-62
2023/12/29 02:40:20;;;;;;;15.93;8.43;;;;;;;;;;1032729;28;20046;-64
2023/12/29 02:40:50;;;;;;;17.35;8.55;;;;;;;;;;1031172;28;20057;-62
2023/12/29 02:41:21;;;;;;;17.33;8.65;;;;;;;;;;1033003;28;20080;-64
2023/12/29 02:41:51;;;;;;;15.80;8.82;;;;;;;;;;1032596;28;20057;-61
2023/12/29 02:42:22;;;;;;;14.43;8.27;;;;;;;;;;1033737;28;20054;-62
2023/12/29 02:42:52;;;;;;;15.82;8.77;;;;;;;;;;1032029;28;20054;-61
2023/12/29 02:43:23;;;;;;;15.65;9.25;;;;;;;;;;1032200;28;20045;-62
2023/12/29 02:43:53;;;;;;;16.85;8.73;;;;;;;;;;1032669;28;20058;-62
2023/12/29 02:44:24;;;;;;;17.75;9.05;;;;;;;;;;1032965;28;20043;-63
2023/12/29 02:44:54;;;;;;;18.55;9.00;;;;;;;;;;1030076;28;20708;-62
2023/12/29 02:45:25;;;;;;;18.88;10.35;;;;;;;;;;1031369;28;20739;-62
2023/12/29 02:45:56;;;;;;;18.10;8.93;;;;;;;;;;1032783;28;20560;-62
2023/12/29 02:46:26;;;;;;;15.80;8.75;;;;;;;;;;1032711;28;20045;-63
2023/12/29 02:46:57;;;;;;;21.60;9.88;;;;;;;;;;1032617;28;20100;-62
2023/12/29 02:47:28;;;;;;;17.92;8.77;;;;;;;;;;1033065;28;20108;-61
2023/12/29 02:47:58;;;;;;;19.17;9.90;;;;;;;;;;1031787;28;20442;-62
2023/12/29 02:48:29;;;;;;;17.40;9.85;;;;;;;;;;1032575;28;20791;-62
2023/12/29 02:48:59;;;;;;;18.33;9.90;;;;;;;;;;1031899;28;20073;-63
2023/12/29 02:49:30;;;;;;;20.23;9.30;;;;;;;;;;1031370;28;20046;-62
2023/12/29 02:50:01;;;;;;;15.77;9.52;;;;;;;;;;1032108;28;20061;-62
2023/12/29 02:50:31;;;;;;;18.60;9.73;;;;;;;;;;1033776;28;20084;-62
2023/12/29 02:51:02;;;;;;;19.58;10.25;;;;;;;;;;1032496;28;20061;-62
2023/12/29 02:51:32;;;;;;;22.45;10.32;;;;;;;;;;1031710;28;20406;-62
2023/12/29 02:52:03;;;;;;;17.40;9.50;;;;;;;;;;1032665;28;20054;-62
2023/12/29 02:52:33;;;;;;;17.45;9.63;;;;;;;;;;1033102;28;20066;-62
2023/12/29 02:53:04;;;;;;;18.40;9.18;;;;;;;;;;1032033;28;20050;-61
2023/12/29 02:53:34;;;;;;;16.52;9.90;;;;;;;;;;1031346;28;20088;-62
2023/12/29 02:54:05;;;;;;;18.23;9.48;;;;;;;;;;1032301;28;21482;-62
2023/12/29 02:54:36;;;;;;;21.15;10.45;;;;;;;;;;1033082;28;20064;-62
2023/12/29 02:55:07;;;;;;;21.17;10.13;;;;;;;;;;1033565;28;20065;-63
2023/12/29 02:55:38;;;;;;;20.10;9.90;;;;;;;;;;1032860;28;20113;-62
2023/12/29 02:56:08;;;;;;;19.50;10.23;;;;;;;;;;1036684;28;20069;-62
2023/12/29 02:56:39;;;;;;;20.60;10.88;;;;;;;;;;1036497;28;20046;-62
2023/12/29 02:57:09;;;;;;;20.98;10.25;;;;;;;;;;1036225;28;20552;-62
2023/12/29 02:57:39;;;;;;;22.95;10.00;;;;;;;;;;1036304;28;20073;-62
2023/12/29 02:58:10;;;;;;;17.38;10.00;;;;;;;;;;1031841;28;20054;-63
2023/12/29 02:58:40;;;;;;;14.80;9.52;;;;;;;;;;1033014;28;20057;-61
2023/12/29 02:59:11;;;;;;;16.88;9.65;;;;;;;;;;1031551;28;20060;-63
2023/12/29 02:59:42;;;;;;;20.52;9.55;;;;;;;;;;1032465;28;20057;-63
2023/12/29 03:00:13;;;;;;;17.77;9.85;;;;;;;;;;1031275;28;20049;-62
2023/12/29 03:00:43;;;;;;;18.38;9.88;;;;;;;;;;1031815;28;20045;-61
2023/12/29 03:01:14;;;;;;;19.52;10.40;;;;;;;;;;1033640;28;20069;-63
2023/12/29 03:01:44;;;;;;;25.00;10.40;;;;;;;;;;1032631;28;20038;-62
2023/12/29 03:02:15;;;;;;;21.58;10.38;;;;;;;;;;1032577;28;20042;-62
2023/12/29 03:02:45;;;;;;;18.50;10.40;;;;;;;;;;1032329;28;20061;-62
2023/12/29 03:03:16;;;;;;;18.80;10.00;;;;;;;;;;1033201;28;20480;-64
2023/12/29 03:03:46;;;;;;;18.92;9.82;;;;;;;;;;1031933;28;20061;-62
2023/12/29 03:04:17;;;;;;;19.30;9.95;;;;;;;;;;1032695;28;20110;-62
2023/12/29 03:04:47;;;;;;;18.70;10.27;;;;;;;;;;1032474;28;20152;-62
2023/12/29 03:05:18;;;;;;;21.25;10.65;;;;;;;;;;1033745;28;20049;-62
2023/12/29 03:05:48;;;;;;;17.67;10.70;;;;;;;;;;1032032;28;20050;-62
2023/12/29 03:06:19;;;;;;;21.58;10.70;;;;;;;;;;1033800;28;20112;-62
2023/12/29 03:06:50;;;;;;;18.70;10.75;;;;;;;;;;1032623;28;20125;-62